Rock Hill, Missouri
Current Conditions -  °F | °C
As of 10:53 PM on Sunday 19 Oct 2014 (Local Time) from KCPS Reporting Station
Overcast Overcast  
Wind Chill: 14°   Ceiling: 11000
Heat Index: 14°   Visibility: 10mi
Dew Point:   Wind: 3mph
Humidity: 65%   Direction: 220°SW
Pressure: 30.04"   Gusts: NA
Location:  38.5887°N, 90.3511°W
Report Text: KCPS 200353Z AUTO 22003KT 10SM OVC110 14/08 A3004 RMK AO2 SLP170 T01440078 $
Loading
Personal Weather Stations






























Interactive Weather Map
Tropical Storm Tracking
New forecast layout! Learn more

10-Day Weather Forecast

Advertisements
Track Severe Weather on mobile